createdAt,value
2022-11-26T00:00:40.979Z,36.10
2022-11-26T00:03:14.965Z,36.53
2022-11-26T00:05:44.903Z,36.47
2022-11-26T00:08:32.418Z,37.00
2022-11-26T00:11:00.188Z,36.70
2022-11-26T00:13:30.813Z,36.90
2022-11-26T00:15:58.215Z,36.37
2022-11-26T00:18:32.606Z,37.13
2022-11-26T00:24:36.993Z,36.43
2022-11-26T00:27:04.512Z,36.63
2022-11-26T00:29:32.362Z,36.37
2022-11-26T00:32:01.449Z,37.47
2022-11-26T00:34:32.395Z,34.33
2022-11-26T00:37:05.234Z,36.13
2022-11-26T00:39:32.186Z,36.20
2022-11-26T00:42:05.656Z,34.00
2022-11-26T00:44:37.295Z,35.60
2022-11-26T00:47:11.799Z,37.77
2022-11-26T00:49:38.873Z,35.83
2022-11-26T00:52:36.504Z,38.23
2022-11-26T00:55:18.518Z,35.57
2022-11-26T00:57:45.724Z,36.47
2022-11-26T01:00:18.182Z,37.13
2022-11-26T01:02:45.322Z,37.37
2022-11-26T01:05:18.275Z,37.43
2022-11-26T01:07:49.871Z,36.43
2022-11-26T01:10:23.331Z,35.73
2022-11-26T01:12:51.588Z,35.03
2022-11-26T01:15:20.704Z,36.63
2022-11-26T01:17:51.651Z,35.27
2022-11-26T01:20:31.004Z,35.10
2022-11-26T01:22:59.249Z,34.60
2022-11-26T01:25:29.590Z,34.67
2022-11-26T01:27:56.723Z,34.13
2022-11-26T01:30:42.621Z,34.73
2022-11-26T01:33:12.338Z,34.57
2022-11-26T01:35:39.478Z,33.60
2022-11-26T01:38:06.642Z,33.60
2022-11-26T01:40:59.991Z,34.83
2022-11-26T01:43:28.601Z,36.67
2022-11-26T01:45:57.594Z,36.00
2022-11-26T01:48:26.721Z,37.87
2022-11-26T01:51:01.112Z,37.57
2022-11-26T01:53:41.265Z,37.57
2022-11-26T01:56:17.062Z,37.43
2022-11-26T01:58:49.602Z,37.57
2022-11-26T02:01:17.960Z,38.60
2022-11-26T02:03:58.549Z,39.20
2022-11-26T02:06:33.050Z,38.30
2022-11-26T02:09:02.379Z,37.57
2022-11-26T02:11:29.605Z,38.10
2022-11-26T02:14:01.656Z,36.83
2022-11-26T02:16:47.761Z,36.53
2022-11-26T02:19:47.024Z,38.53
2022-11-26T02:22:51.117Z,36.93
2022-11-26T02:25:37.642Z,36.77
2022-11-26T02:28:30.835Z,36.83
2022-11-26T02:31:06.826Z,34.23
2022-11-26T02:33:49.391Z,34.27
2022-11-26T02:36:38.019Z,35.97
2022-11-26T02:39:19.110Z,33.90
2022-11-26T02:41:51.799Z,35.53
2022-11-26T02:44:23.038Z,35.73
2022-11-26T02:46:59.430Z,34.73
2022-11-26T02:49:30.034Z,35.40
2022-11-26T02:52:02.517Z,36.03
2022-11-26T02:54:32.546Z,36.50
2022-11-26T02:57:03.763Z,35.83
2022-11-26T02:59:34.393Z,36.00
2022-11-26T03:02:12.506Z,35.07
2022-11-26T03:04:47.745Z,34.27
2022-11-26T03:07:16.183Z,35.00
2022-11-26T03:09:52.622Z,35.63
2022-11-26T03:12:23.238Z,34.40
2022-11-26T03:14:58.048Z,34.73
2022-11-26T03:17:27.935Z,34.70
2022-11-26T03:20:04.695Z,33.87
2022-11-26T03:22:34.616Z,33.50
2022-11-26T03:25:04.337Z,33.37
2022-11-26T03:27:35.635Z,33.17
2022-11-26T03:30:09.434Z,35.30
2022-11-26T03:32:40.046Z,34.10
2022-11-26T03:35:07.721Z,34.97
2022-11-26T03:37:37.006Z,34.73
2022-11-26T03:40:06.001Z,34.37
2022-11-26T03:42:33.558Z,32.70
2022-11-26T03:45:00.802Z,35.03
2022-11-26T03:47:28.108Z,35.67
2022-11-26T03:49:55.618Z,35.33
2022-11-26T03:52:22.542Z,34.67
2022-11-26T03:54:49.698Z,35.93
2022-11-26T03:57:17.408Z,35.43
2022-11-26T03:59:44.763Z,36.40
2022-11-26T04:02:11.706Z,34.90
2022-11-26T04:04:38.968Z,34.47
2022-11-26T04:07:06.338Z,35.63
2022-11-26T04:09:34.700Z,36.33
2022-11-26T04:12:01.900Z,36.40
2022-11-26T04:14:29.124Z,36.73
2022-11-26T04:16:56.239Z,38.07
2022-11-26T04:19:23.353Z,36.83
2022-11-26T04:21:50.270Z,37.13
2022-11-26T04:24:17.186Z,37.43
2022-11-26T04:26:44.110Z,36.23
2022-11-26T04:29:10.986Z,37.10
2022-11-26T04:31:39.755Z,35.17
2022-11-26T04:34:06.718Z,35.53
2022-11-26T04:36:34.785Z,37.67
2022-11-26T04:39:04.492Z,37.23
2022-11-26T04:41:31.493Z,36.73
2022-11-26T04:43:58.538Z,37.60
2022-11-26T04:46:25.595Z,37.97
2022-11-26T04:48:55.241Z,38.10
2022-11-26T04:51:22.296Z,37.70
2022-11-26T04:53:50.046Z,37.53
2022-11-26T04:56:19.519Z,36.83
2022-11-26T04:58:46.449Z,35.40
2022-11-26T05:01:13.417Z,33.23
2022-11-26T05:03:40.396Z,32.20
2022-11-26T05:06:07.712Z,31.90
2022-11-26T05:08:34.665Z,31.47
2022-11-26T05:11:03.267Z,30.10
2022-11-26T05:13:32.807Z,27.60
2022-11-26T05:15:59.790Z,28.60
2022-11-26T05:18:26.922Z,27.53
2022-11-26T05:20:53.801Z,27.57
2022-11-26T05:23:20.647Z,26.70
2022-11-26T05:25:48.018Z,27.03
2022-11-26T05:28:14.918Z,27.07
2022-11-26T05:30:41.986Z,25.23
2022-11-26T05:33:09.322Z,25.57
2022-11-26T05:35:37.944Z,22.47
2022-11-26T05:38:05.192Z,24.47
2022-11-26T05:40:32.235Z,24.97
2022-11-26T05:42:59.400Z,24.57
2022-11-26T05:45:26.378Z,23.90
2022-11-26T05:47:53.297Z,23.47
2022-11-26T05:50:20.268Z,22.97
2022-11-26T05:52:47.320Z,23.20
2022-11-26T05:55:16.503Z,24.03
2022-11-26T05:57:43.700Z,25.00
2022-11-26T06:00:12.005Z,24.40
2022-11-26T06:02:39.644Z,24.83
2022-11-26T06:05:10.161Z,24.87
2022-11-26T06:07:40.629Z,24.53
2022-11-26T06:10:15.360Z,24.20
2022-11-26T06:12:42.611Z,25.07
2022-11-26T06:15:15.623Z,24.40
2022-11-26T06:17:42.916Z,25.20
2022-11-26T06:20:10.498Z,25.03
2022-11-26T06:22:43.403Z,25.33
2022-11-26T06:25:13.834Z,25.13
2022-11-26T06:27:41.608Z,24.53
2022-11-26T06:30:10.683Z,22.63
2022-11-26T06:32:37.961Z,21.63
2022-11-26T06:35:05.896Z,21.47
2022-11-26T06:37:33.574Z,20.77
2022-11-26T06:40:00.547Z,19.70
2022-11-26T06:42:27.731Z,19.87
2022-11-26T06:44:58.447Z,18.83
2022-11-26T06:47:27.321Z,19.60
2022-11-26T06:49:54.309Z,21.03
2022-11-26T06:52:21.255Z,20.43
2022-11-26T06:54:49.433Z,22.87
2022-11-26T06:57:16.351Z,23.70
2022-11-26T06:59:43.158Z,24.00
2022-11-26T07:02:10.669Z,24.50
2022-11-26T07:04:37.869Z,23.57
2022-11-26T07:07:04.929Z,22.93
2022-11-26T07:09:31.822Z,23.37
2022-11-26T07:11:58.894Z,22.90
2022-11-26T07:14:25.849Z,23.43
2022-11-26T07:16:52.896Z,22.87
2022-11-26T07:19:19.685Z,22.23
2022-11-26T07:21:46.524Z,22.60
2022-11-26T07:24:13.361Z,22.10
2022-11-26T07:26:40.155Z,22.07
2022-11-26T07:29:07.185Z,22.30
2022-11-26T07:31:34.078Z,21.07
2022-11-26T07:34:01.029Z,20.30
2022-11-26T07:36:30.117Z,20.97
2022-11-26T07:38:59.213Z,21.27
2022-11-26T07:41:27.361Z,20.63
2022-11-26T07:43:54.538Z,23.70
2022-11-26T07:46:24.577Z,20.97
2022-11-26T07:48:51.685Z,22.40
2022-11-26T07:51:30.035Z,21.43
2022-11-26T07:53:59.583Z,21.80
2022-11-26T07:56:27.212Z,21.83
2022-11-26T07:58:54.322Z,21.37
2022-11-26T08:01:29.888Z,20.67
2022-11-26T08:03:58.125Z,20.77
2022-11-26T08:06:28.287Z,22.33
2022-11-26T08:08:55.640Z,20.57
2022-11-26T08:11:28.210Z,22.90
2022-11-26T08:13:58.335Z,20.80
2022-11-26T08:16:28.455Z,22.23
2022-11-26T08:18:57.889Z,21.47
2022-11-26T08:21:29.272Z,21.30
2022-11-26T08:23:56.746Z,23.73
2022-11-26T08:26:33.063Z,22.43
2022-11-26T08:29:02.083Z,21.53
2022-11-26T08:31:29.415Z,22.63
2022-11-26T08:33:58.045Z,23.43
2022-11-26T08:36:25.972Z,23.03
2022-11-26T08:38:52.851Z,22.30
2022-11-26T08:41:19.862Z,22.03
2022-11-26T08:46:33.842Z,22.47
2022-11-26T08:49:01.050Z,20.97
2022-11-26T08:51:27.889Z,19.53
2022-11-26T08:53:54.771Z,20.90
2022-11-26T08:56:21.942Z,22.80
2022-11-26T08:58:49.361Z,21.50
2022-11-26T09:01:27.658Z,22.30
2022-11-26T09:04:00.481Z,21.43
2022-11-26T09:06:30.928Z,22.23
2022-11-26T09:09:14.792Z,21.77
2022-11-26T09:11:56.489Z,21.30
2022-11-26T09:14:26.163Z,20.70
2022-11-26T09:16:55.074Z,21.27
2022-11-26T09:19:22.229Z,22.50
2022-11-26T09:21:49.464Z,22.00
2022-11-26T09:24:17.367Z,22.90
2022-11-26T09:26:44.483Z,22.30
2022-11-26T09:29:16.504Z,21.20
2022-11-26T09:32:15.479Z,20.60
2022-11-26T09:34:32.239Z,20.23
2022-11-26T09:36:59.189Z,20.87
2022-11-26T09:39:27.469Z,20.53
2022-11-26T09:42:01.339Z,20.53
2022-11-26T09:45:01.666Z,20.33
2022-11-26T09:47:38.248Z,20.60
2022-11-26T09:50:13.794Z,19.60
2022-11-26T09:52:45.240Z,20.27
2022-11-26T09:55:24.403Z,19.90
2022-11-26T09:58:21.006Z,20.00
2022-11-26T10:00:58.125Z,19.73
2022-11-26T10:03:30.096Z,18.90
2022-11-26T10:06:09.093Z,20.10
2022-11-26T10:09:11.408Z,20.57
2022-11-26T10:12:07.469Z,20.23
2022-11-26T10:14:59.897Z,19.33
2022-11-26T10:17:44.737Z,19.93
2022-11-26T10:20:14.365Z,19.70
2022-11-26T10:22:57.154Z,19.13
2022-11-26T10:25:28.931Z,19.10
2022-11-26T10:27:58.471Z,18.93
2022-11-26T10:30:28.142Z,17.77
2022-11-26T10:32:56.305Z,18.07
2022-11-26T10:35:25.924Z,17.57
2022-11-26T10:37:55.509Z,18.40
2022-11-26T10:40:25.823Z,17.30
2022-11-26T10:42:59.047Z,17.73
2022-11-26T10:45:36.534Z,19.17
2022-11-26T10:48:24.482Z,18.00
2022-11-26T10:51:26.416Z,18.43
2022-11-26T10:53:59.882Z,17.13
2022-11-26T10:56:37.189Z,17.73
2022-11-26T10:59:07.478Z,19.33
2022-11-26T11:01:39.767Z,19.27
2022-11-26T11:04:27.509Z,19.23
2022-11-26T11:06:54.493Z,19.47
2022-11-26T11:09:36.752Z,18.47
2022-11-26T11:12:25.017Z,17.70
2022-11-26T11:14:52.488Z,18.70
2022-11-26T11:17:34.144Z,17.87
2022-11-26T11:20:22.130Z,17.70
2022-11-26T11:23:02.318Z,17.63
2022-11-26T11:25:33.435Z,17.27
2022-11-26T11:28:10.465Z,18.13
2022-11-26T11:30:41.149Z,16.20
2022-11-26T11:33:20.081Z,17.53
2022-11-26T11:36:01.033Z,17.40
2022-11-26T11:38:31.407Z,16.77
2022-11-26T11:41:37.074Z,16.33
2022-11-26T11:44:05.607Z,15.53
2022-11-26T11:47:02.453Z,17.20
2022-11-26T11:49:37.997Z,16.77
2022-11-26T11:52:38.482Z,16.73
2022-11-26T11:55:26.907Z,17.63
2022-11-26T11:58:31.168Z,17.10
2022-11-26T12:01:12.776Z,17.60
2022-11-26T12:07:15.254Z,18.10
2022-11-26T12:10:08.806Z,19.23
2022-11-26T12:12:38.505Z,17.93
2022-11-26T12:15:26.594Z,18.13
2022-11-26T12:18:11.194Z,17.57
2022-11-26T12:20:46.091Z,17.33
2022-11-26T12:23:50.029Z,18.87
2022-11-26T12:26:42.374Z,17.53
2022-11-26T12:29:25.444Z,18.67
2022-11-26T12:31:58.152Z,18.93
2022-11-26T12:34:39.211Z,19.33
2022-11-26T12:37:32.097Z,19.43
2022-11-26T12:40:01.998Z,20.00
2022-11-26T12:42:57.203Z,19.13
2022-11-26T12:45:45.200Z,20.70
2022-11-26T12:48:27.726Z,19.93
2022-11-26T12:50:58.884Z,20.00
2022-11-26T12:53:43.722Z,19.53
2022-11-26T12:56:22.736Z,18.87
2022-11-26T12:59:02.317Z,18.30
2022-11-26T13:01:30.089Z,19.70
2022-11-26T13:04:21.688Z,19.57
2022-11-26T13:06:55.882Z,19.17
2022-11-26T13:09:28.467Z,18.90
2022-11-26T13:12:18.635Z,21.17
2022-11-26T13:15:10.553Z,19.53
2022-11-26T13:17:44.390Z,19.70
2022-11-26T13:20:30.394Z,21.00
2022-11-26T13:23:16.529Z,20.57
2022-11-26T13:25:55.180Z,20.80
2022-11-26T13:28:33.230Z,19.00
2022-11-26T13:31:53.221Z,18.63
2022-11-26T13:34:32.878Z,17.87
2022-11-26T13:37:20.999Z,17.97
2022-11-26T13:40:07.131Z,17.97
2022-11-26T13:43:10.976Z,19.13
2022-11-26T13:45:58.285Z,18.70
2022-11-26T13:48:43.344Z,18.70
2022-11-26T13:51:19.603Z,17.77
2022-11-26T13:53:56.021Z,18.03
2022-11-26T13:56:26.223Z,19.53
2022-11-26T13:59:17.792Z,19.43
2022-11-26T14:01:47.196Z,18.70
2022-11-26T14:04:23.083Z,18.83
2022-11-26T14:07:10.154Z,18.60
2022-11-26T14:09:43.043Z,19.07
2022-11-26T14:12:11.383Z,17.73
2022-11-26T14:14:39.774Z,18.03
2022-11-26T14:17:19.767Z,17.90
2022-11-26T14:19:51.728Z,17.67
2022-11-26T14:22:21.517Z,17.47
2022-11-26T14:24:51.101Z,18.50
2022-11-26T14:27:17.880Z,17.47
2022-11-26T14:29:46.140Z,18.40
2022-11-26T14:32:19.417Z,17.87
2022-11-26T14:34:56.992Z,17.80
2022-11-26T14:37:26.771Z,18.17
2022-11-26T14:40:05.591Z,18.10
2022-11-26T14:42:32.427Z,16.67
2022-11-26T14:45:12.796Z,18.47
2022-11-26T14:47:39.747Z,18.23
2022-11-26T14:50:08.206Z,17.77
2022-11-26T14:52:37.576Z,18.80
2022-11-26T14:55:08.642Z,18.97
2022-11-26T14:57:43.082Z,18.50
2022-11-26T15:00:15.873Z,19.20
2022-11-26T15:02:48.035Z,19.37
2022-11-26T15:05:21.786Z,18.53
2022-11-26T15:08:07.571Z,20.40
2022-11-26T15:10:37.738Z,19.93
2022-11-26T15:13:12.373Z,19.43
2022-11-26T15:15:57.226Z,19.00
2022-11-26T15:18:32.571Z,18.90
2022-11-26T15:21:01.081Z,18.63
2022-11-26T15:23:46.037Z,16.73
2022-11-26T15:26:22.810Z,18.20
2022-11-26T15:28:50.228Z,19.10
2022-11-26T15:31:17.299Z,16.83
2022-11-26T15:33:44.688Z,18.33
2022-11-26T15:36:17.421Z,18.07
2022-11-26T15:39:09.037Z,18.87
2022-11-26T15:41:42.659Z,16.80
2022-11-26T15:44:28.225Z,18.60
2022-11-26T15:47:00.712Z,18.67
2022-11-26T15:49:40.800Z,17.63
2022-11-26T15:52:13.959Z,17.03
2022-11-26T15:55:11.318Z,16.03
2022-11-26T15:57:38.109Z,15.37
2022-11-26T16:00:24.398Z,15.53
2022-11-26T16:02:52.440Z,16.50
2022-11-26T16:05:28.944Z,16.97
2022-11-26T16:08:02.481Z,18.50
2022-11-26T16:10:35.349Z,18.93
2022-11-26T16:13:09.050Z,17.97
2022-11-26T16:15:37.153Z,18.57
2022-11-26T16:18:13.184Z,20.13
2022-11-26T16:20:40.315Z,19.87
2022-11-26T16:23:18.175Z,18.30
2022-11-26T16:26:19.554Z,18.37
2022-11-26T16:28:47.592Z,17.30
2022-11-26T16:31:16.464Z,18.10
2022-11-26T16:33:46.868Z,17.27
2022-11-26T16:36:32.393Z,17.00
2022-11-26T16:38:59.528Z,17.13
2022-11-26T16:41:26.939Z,17.90
2022-11-26T16:43:53.813Z,17.83
2022-11-26T16:46:28.081Z,17.47
2022-11-26T16:48:55.113Z,17.57
2022-11-26T16:51:22.567Z,16.50
2022-11-26T16:54:50.960Z,16.60
2022-11-26T16:57:20.905Z,15.33
2022-11-26T16:59:56.037Z,14.93
2022-11-26T17:02:23.657Z,15.53
2022-11-26T17:04:50.765Z,15.93
2022-11-26T17:07:25.367Z,16.07
2022-11-26T17:09:53.826Z,15.90
2022-11-26T17:12:23.385Z,16.33
2022-11-26T17:14:50.381Z,18.67
2022-11-26T17:17:25.501Z,17.30
2022-11-26T17:19:52.775Z,16.53
2022-11-26T17:22:20.319Z,15.70
2022-11-26T17:24:47.134Z,17.07
2022-11-26T17:27:16.712Z,15.63
2022-11-26T17:29:45.197Z,15.87
2022-11-26T17:32:17.430Z,15.13
2022-11-26T17:34:45.230Z,16.47
2022-11-26T17:37:27.857Z,16.13
2022-11-26T17:39:55.871Z,17.00
2022-11-26T17:42:24.339Z,14.97
2022-11-26T17:44:52.602Z,15.00
2022-11-26T17:47:22.057Z,14.60
2022-11-26T17:49:49.090Z,14.60
2022-11-26T17:52:16.676Z,13.70
2022-11-26T17:54:44.425Z,13.67
2022-11-26T17:57:13.432Z,13.47
2022-11-26T17:59:40.988Z,14.03
2022-11-26T18:02:09.433Z,14.17
2022-11-26T18:04:37.008Z,12.77
2022-11-26T18:07:08.730Z,12.90
2022-11-26T18:09:35.939Z,14.50
2022-11-26T18:12:04.044Z,13.77
2022-11-26T18:14:31.245Z,14.77
2022-11-26T18:16:58.137Z,14.00
2022-11-26T18:19:25.117Z,14.17
2022-11-26T18:21:52.579Z,14.40
2022-11-26T18:24:19.780Z,13.70
2022-11-26T18:26:46.836Z,14.30
2022-11-26T18:29:14.032Z,13.00
2022-11-26T18:31:41.027Z,14.23
2022-11-26T18:34:08.078Z,14.37
2022-11-26T18:36:34.976Z,15.57
2022-11-26T18:39:04.161Z,15.93
2022-11-26T18:41:31.501Z,15.20
2022-11-26T18:43:58.386Z,16.20
2022-11-26T18:46:26.447Z,14.40
2022-11-26T18:48:56.178Z,15.07
2022-11-26T18:51:29.255Z,15.67
2022-11-26T18:53:56.631Z,16.37
2022-11-26T18:56:24.377Z,13.73
2022-11-26T18:58:53.358Z,14.17
2022-11-26T19:01:30.105Z,13.80
2022-11-26T19:03:59.148Z,14.33
2022-11-26T19:06:29.255Z,15.30
2022-11-26T19:09:06.854Z,14.33
2022-11-26T19:11:34.308Z,14.30
2022-11-26T19:14:01.537Z,14.10
2022-11-26T19:16:29.021Z,14.67
2022-11-26T19:18:56.057Z,14.17
2022-11-26T19:21:28.517Z,14.47
2022-11-26T19:23:57.058Z,14.40
2022-11-26T19:26:24.286Z,14.23
2022-11-26T19:28:52.205Z,14.80
2022-11-26T19:31:23.440Z,15.33
2022-11-26T19:33:55.750Z,14.67
2022-11-26T19:36:22.586Z,16.23
2022-11-26T19:38:55.271Z,14.77
2022-11-26T19:41:25.562Z,15.07
2022-11-26T19:43:53.177Z,16.60
2022-11-26T19:46:22.210Z,16.60
2022-11-26T19:48:50.447Z,16.83
2022-11-26T19:51:19.245Z,16.93
2022-11-26T19:53:50.792Z,17.83
2022-11-26T19:56:23.653Z,17.37
2022-11-26T19:58:53.895Z,19.53
2022-11-26T20:01:22.005Z,18.23
2022-11-26T20:03:49.296Z,19.07
2022-11-26T20:06:22.102Z,17.00
2022-11-26T20:08:49.530Z,18.37
2022-11-26T20:11:17.321Z,17.33
2022-11-26T20:13:45.699Z,18.27
2022-11-26T20:16:18.462Z,17.07
2022-11-26T20:18:45.838Z,17.17
2022-11-26T20:21:25.636Z,18.10
2022-11-26T20:23:54.264Z,17.07
2022-11-26T20:26:25.387Z,18.80
2022-11-26T20:28:53.810Z,18.70
2022-11-26T20:31:23.966Z,19.63
2022-11-26T20:33:53.004Z,19.13
2022-11-26T20:36:23.380Z,20.83
2022-11-26T20:38:55.410Z,20.67
2022-11-26T20:41:23.488Z,20.83
2022-11-26T20:43:56.536Z,20.73
2022-11-26T20:46:25.596Z,21.27
2022-11-26T20:48:52.977Z,20.53
2022-11-26T20:51:21.898Z,22.90
2022-11-26T20:53:50.649Z,23.80
2022-11-26T20:56:20.230Z,21.90
2022-11-26T20:58:48.205Z,22.27
2022-11-26T21:01:17.721Z,23.50
2022-11-26T21:03:45.138Z,22.43
2022-11-26T21:06:16.590Z,22.20
2022-11-26T21:08:43.487Z,23.60
2022-11-26T21:11:11.287Z,23.20
2022-11-26T21:13:39.434Z,23.13
2022-11-26T21:16:08.363Z,22.93
2022-11-26T21:18:35.286Z,21.93
2022-11-26T21:21:08.777Z,23.40
2022-11-26T21:23:38.975Z,22.47
2022-11-26T21:26:10.997Z,21.13
2022-11-26T21:28:38.420Z,22.83
2022-11-26T21:31:11.665Z,22.97
2022-11-26T21:33:38.572Z,22.50
2022-11-26T21:36:10.553Z,22.57
2022-11-26T21:38:37.876Z,22.97
2022-11-26T21:41:06.530Z,22.33
2022-11-26T21:43:33.712Z,22.43
2022-11-26T21:46:05.298Z,22.37
2022-11-26T21:48:33.185Z,23.17
2022-11-26T21:51:00.059Z,22.93
2022-11-26T21:53:26.952Z,22.13
2022-11-26T21:55:53.983Z,22.73
2022-11-26T21:58:20.956Z,22.90
2022-11-26T22:00:47.790Z,23.80
2022-11-26T22:03:14.882Z,23.60
2022-11-26T22:05:41.940Z,22.83
2022-11-26T22:08:08.950Z,22.27
2022-11-26T22:10:37.268Z,24.20
2022-11-26T22:13:04.275Z,22.43
2022-11-26T22:15:31.203Z,21.73
2022-11-26T22:17:58.112Z,22.90
2022-11-26T22:20:25.112Z,22.27
2022-11-26T22:22:52.292Z,22.30
2022-11-26T22:25:19.398Z,21.83
2022-11-26T22:27:46.354Z,21.13
2022-11-26T22:30:14.382Z,21.90
2022-11-26T22:32:41.407Z,22.10
2022-11-26T22:35:08.978Z,21.73
2022-11-26T22:37:35.794Z,22.37
2022-11-26T22:40:03.745Z,22.47
2022-11-26T22:42:30.610Z,22.50
2022-11-26T22:44:57.511Z,22.17
2022-11-26T22:47:24.346Z,23.03
2022-11-26T22:49:51.373Z,22.53
2022-11-26T22:52:18.543Z,22.83
2022-11-26T22:54:45.379Z,23.23
2022-11-26T22:57:12.214Z,21.87
2022-11-26T22:59:39.305Z,22.57
2022-11-26T23:02:06.333Z,22.60
2022-11-26T23:04:33.285Z,22.40
2022-11-26T23:07:00.112Z,23.70
2022-11-26T23:09:26.970Z,21.73
2022-11-26T23:11:53.781Z,22.23
2022-11-26T23:14:20.621Z,22.07
2022-11-26T23:16:47.550Z,21.17
2022-11-26T23:19:15.762Z,20.83
2022-11-26T23:21:44.742Z,22.20
2022-11-26T23:24:12.402Z,19.90
2022-11-26T23:26:40.469Z,20.97
2022-11-26T23:29:09.079Z,21.13
2022-11-26T23:31:38.862Z,20.47
2022-11-26T23:34:06.464Z,20.90
2022-11-26T23:36:33.958Z,19.90
2022-11-26T23:39:03.368Z,19.83
2022-11-26T23:41:30.471Z,20.77
2022-11-26T23:43:57.595Z,19.57
2022-11-26T23:46:27.364Z,20.37
2022-11-26T23:48:55.071Z,19.47
2022-11-26T23:51:27.375Z,18.40
2022-11-26T23:53:54.477Z,19.07
2022-11-26T23:56:32.994Z,20.07
2022-11-26T23:59:04.857Z,19.53
